createdAt,value
2023-01-17T00:01:16.167Z,3.3
2023-01-17T00:21:20.228Z,3.1
2023-01-17T00:31:22.377Z,3.1
2023-01-17T00:51:26.788Z,3.2
2023-01-17T01:01:28.703Z,3.3
2023-01-17T01:11:30.849Z,3.2
2023-01-17T02:01:41.565Z,2.9
2023-01-17T02:11:43.958Z,2.8
2023-01-17T02:31:48.881Z,2.6
2023-01-17T02:51:53.280Z,1.8
2023-01-17T03:01:55.479Z,1.5
2023-01-17T03:11:58.059Z,1.3
2023-01-17T03:21:59.766Z,0.9
2023-01-17T03:32:02.170Z,0.4
2023-01-17T03:42:04.389Z,0.3
2023-01-17T03:52:06.931Z,0.4
2023-01-17T04:02:09.226Z,0.6
2023-01-17T04:12:11.125Z,0.7
2023-01-17T04:22:12.913Z,0.8
2023-01-17T04:32:15.011Z,0.9
2023-01-17T04:42:17.098Z,0.9
2023-01-17T04:52:19.468Z,1
2023-01-17T05:02:21.766Z,1.1
2023-01-17T05:12:23.686Z,1.2
2023-01-17T05:22:25.420Z,1.2
2023-01-17T05:32:27.429Z,1.2
2023-01-17T05:42:29.823Z,1.2
2023-01-17T05:52:31.521Z,1.3
2023-01-17T06:02:33.441Z,1.3
2023-01-17T06:12:35.927Z,1.3
2023-01-17T06:32:41.185Z,1.2
2023-01-17T06:42:43.285Z,1.3
2023-01-17T06:52:45.270Z,1.2
2023-01-17T07:02:47.126Z,1.1
2023-01-17T07:12:49.507Z,1.1
2023-01-17T07:22:52.274Z,1.1
2023-01-17T07:32:54.389Z,1.1
2023-01-17T07:52:58.862Z,1.1
2023-01-17T08:03:01.059Z,1.1
2023-01-17T08:23:05.959Z,1.2
2023-01-17T08:33:08.097Z,1.2
2023-01-17T08:43:10.269Z,1.1
2023-01-17T08:53:12.509Z,1.3
2023-01-17T09:03:14.728Z,1.4
2023-01-17T09:13:16.641Z,1.3
2023-01-17T09:23:18.769Z,1.5
2023-01-17T09:33:20.874Z,1.5
2023-01-17T09:43:22.783Z,1.8
2023-01-17T09:53:24.602Z,1.7
2023-01-17T10:03:27.095Z,1.7
2023-01-17T10:13:29.559Z,1.7
2023-01-17T10:23:32.214Z,2.1
2023-01-17T10:43:36.021Z,2.1
2023-01-17T10:53:38.175Z,2.2
2023-01-17T11:03:40.313Z,2.1
2023-01-17T11:13:42.470Z,2.2
2023-01-17T11:23:45.244Z,2.3
2023-01-17T11:33:47.686Z,2.3
2023-01-17T11:43:50.197Z,2.5
2023-01-17T11:53:52.175Z,2.5
2023-01-17T12:03:54.308Z,2.8
2023-01-17T12:13:56.466Z,2.7
2023-01-17T12:23:59.122Z,2.8
2023-01-17T12:34:01.809Z,2.9
2023-01-17T12:44:04.475Z,2.9
2023-01-17T12:54:06.437Z,3
2023-01-17T13:04:08.855Z,3.2
2023-01-17T13:14:11.244Z,3.2
2023-01-17T13:24:13.554Z,3.2
2023-01-17T13:34:15.589Z,2.9
2023-01-17T13:44:18.402Z,3.3
2023-01-17T13:54:20.940Z,3.4
2023-01-17T14:04:23.145Z,3.5
2023-01-17T14:14:25.094Z,3.3
2023-01-17T14:24:26.889Z,3.2
2023-01-17T14:44:33.435Z,3.1
2023-01-17T14:54:33.746Z,3
2023-01-17T15:04:35.615Z,2.8
2023-01-17T15:14:38.217Z,2.9
2023-01-17T15:24:40.875Z,2.9
2023-01-17T15:34:43.472Z,2.8
2023-01-17T15:44:49.081Z,2.8
2023-01-17T15:54:48.582Z,2.4
2023-01-17T16:24:55.595Z,2
2023-01-17T16:34:58.199Z,1.8
2023-01-17T16:45:00.466Z,1.8
2023-01-17T16:55:02.187Z,1.9
2023-01-17T17:05:04.786Z,1.9
2023-01-17T17:15:07.303Z,1.7
2023-01-17T17:35:11.569Z,1.7
2023-01-17T17:45:13.630Z,1.6
2023-01-17T17:55:15.592Z,1.4
2023-01-17T18:05:17.786Z,1.1
2023-01-17T18:15:19.711Z,1
2023-01-17T18:25:22.084Z,0.7
2023-01-17T18:35:23.838Z,0.4
2023-01-17T18:45:26.137Z,0.3
2023-01-17T18:55:28.383Z,0.2
2023-01-17T19:05:30.741Z,0
2023-01-17T19:08:09.131Z,-0.1
2023-01-17T19:15:42.170Z,-0.1
2023-01-17T19:25:44.853Z,-0.2
2023-01-17T19:35:48.993Z,-0.3
2023-01-17T19:45:49.289Z,-0.4
2023-01-17T19:55:51.400Z,-0.5
2023-01-17T20:15:55.951Z,-0.7
2023-01-17T20:25:58.391Z,-1
2023-01-17T20:36:09.464Z,-0.8
2023-01-17T20:46:03.177Z,-0.9
2023-01-17T21:16:09.888Z,-1
2023-01-17T21:26:11.601Z,-1.1
2023-01-17T21:36:13.423Z,-1.2
2023-01-17T21:46:16.101Z,-1.3
2023-01-17T21:56:18.532Z,-1.5
2023-01-17T22:06:20.785Z,-1.5
2023-01-17T22:16:22.906Z,-1.5
2023-01-17T22:26:25.506Z,-1.6
2023-01-17T22:36:27.601Z,-1.6
2023-01-17T23:26:38.076Z,-1.9
2023-01-17T23:56:44.588Z,-2.1
